sensor_id;sensor_type;location;lat;lon;timestamp;P1;durP1;ratioP1;P2;durP2;ratioP2
38797;SDS011;24546;52.240;16.826;2022-07-29T00:04:53;6.25;;;2.83;;
38797;SDS011;24546;52.240;16.826;2022-07-29T00:09:54;5.07;;;2.28;;
38797;SDS011;24546;52.240;16.826;2022-07-29T00:14:55;7.53;;;2.60;;
38797;SDS011;24546;52.240;16.826;2022-07-29T00:19:57;5.20;;;2.20;;
38797;SDS011;24546;52.240;16.826;2022-07-29T00:24:58;8.38;;;3.78;;
38797;SDS011;24546;52.240;16.826;2022-07-29T00:29:58;6.60;;;2.70;;
38797;SDS011;24546;52.240;16.826;2022-07-29T00:35:00;5.60;;;2.78;;
38797;SDS011;24546;52.240;16.826;2022-07-29T00:40:19;6.80;;;2.88;;
38797;SDS011;24546;52.240;16.826;2022-07-29T00:45:20;7.25;;;3.53;;
38797;SDS011;24546;52.240;16.826;2022-07-29T00:50:22;7.28;;;2.88;;
38797;SDS011;24546;52.240;16.826;2022-07-29T00:55:23;5.45;;;3.08;;
38797;SDS011;24546;52.240;16.826;2022-07-29T01:00:25;6.65;;;2.97;;
38797;SDS011;24546;52.240;16.826;2022-07-29T01:05:27;9.18;;;3.67;;
38797;SDS011;24546;52.240;16.826;2022-07-29T01:10:29;6.80;;;4.03;;
38797;SDS011;24546;52.240;16.826;2022-07-29T01:15:31;7.53;;;3.20;;
38797;SDS011;24546;52.240;16.826;2022-07-29T01:36:43;8.02;;;3.72;;
38797;SDS011;24546;52.240;16.826;2022-07-29T01:41:51;9.60;;;3.60;;
38797;SDS011;24546;52.240;16.826;2022-07-29T01:47:00;7.20;;;3.60;;
38797;SDS011;24546;52.240;16.826;2022-07-29T01:52:11;7.40;;;4.13;;
38797;SDS011;24546;52.240;16.826;2022-07-29T01:57:19;9.80;;;4.15;;
38797;SDS011;24546;52.240;16.826;2022-07-29T02:02:25;7.85;;;3.90;;
38797;SDS011;24546;52.240;16.826;2022-07-29T02:07:28;5.05;;;3.47;;
38797;SDS011;24546;52.240;16.826;2022-07-29T02:12:31;9.80;;;3.95;;
38797;SDS011;24546;52.240;16.826;2022-07-29T02:17:44;7.03;;;3.95;;
38797;SDS011;24546;52.240;16.826;2022-07-29T02:22:52;10.57;;;4.13;;
38797;SDS011;24546;52.240;16.826;2022-07-29T02:27:54;8.98;;;3.85;;
38797;SDS011;24546;52.240;16.826;2022-07-29T02:32:56;7.40;;;3.90;;
38797;SDS011;24546;52.240;16.826;2022-07-29T02:37:57;5.57;;;3.90;;
38797;SDS011;24546;52.240;16.826;2022-07-29T02:43:17;9.40;;;4.28;;
38797;SDS011;24546;52.240;16.826;2022-07-29T02:48:22;5.95;;;4.20;;
38797;SDS011;24546;52.240;16.826;2022-07-29T02:53:29;8.13;;;4.25;;
38797;SDS011;24546;52.240;16.826;2022-07-29T02:58:34;12.52;;;4.43;;
38797;SDS011;24546;52.240;16.826;2022-07-29T03:03:46;9.25;;;4.80;;
38797;SDS011;24546;52.240;16.826;2022-07-29T03:08:50;7.05;;;4.43;;
38797;SDS011;24546;52.240;16.826;2022-07-29T03:13:52;7.40;;;4.47;;
38797;SDS011;24546;52.240;16.826;2022-07-29T03:18:55;9.23;;;4.50;;
38797;SDS011;24546;52.240;16.826;2022-07-29T03:23:56;9.30;;;5.25;;
38797;SDS011;24546;52.240;16.826;2022-07-29T03:28:57;12.73;;;5.18;;
38797;SDS011;24546;52.240;16.826;2022-07-29T03:33:58;7.35;;;4.28;;
38797;SDS011;24546;52.240;16.826;2022-07-29T03:38:59;7.47;;;4.63;;
38797;SDS011;24546;52.240;16.826;2022-07-29T03:44:01;7.65;;;4.50;;
38797;SDS011;24546;52.240;16.826;2022-07-29T03:49:04;10.65;;;4.57;;
38797;SDS011;24546;52.240;16.826;2022-07-29T03:54:08;6.80;;;4.72;;
38797;SDS011;24546;52.240;16.826;2022-07-29T03:59:09;9.15;;;4.30;;
38797;SDS011;24546;52.240;16.826;2022-07-29T04:04:11;7.35;;;4.32;;
38797;SDS011;24546;52.240;16.826;2022-07-29T04:09:12;8.60;;;4.18;;
38797;SDS011;24546;52.240;16.826;2022-07-29T04:14:13;7.75;;;4.50;;
38797;SDS011;24546;52.240;16.826;2022-07-29T04:19:14;10.60;;;4.82;;
38797;SDS011;24546;52.240;16.826;2022-07-29T04:24:15;5.85;;;4.35;;
38797;SDS011;24546;52.240;16.826;2022-07-29T04:29:16;9.48;;;4.25;;
38797;SDS011;24546;52.240;16.826;2022-07-29T04:34:16;8.63;;;4.50;;
38797;SDS011;24546;52.240;16.826;2022-07-29T04:39:17;7.80;;;4.28;;
38797;SDS011;24546;52.240;16.826;2022-07-29T04:44:19;8.45;;;3.85;;
38797;SDS011;24546;52.240;16.826;2022-07-29T04:49:20;9.70;;;4.30;;
38797;SDS011;24546;52.240;16.826;2022-07-29T04:54:20;10.77;;;4.07;;
38797;SDS011;24546;52.240;16.826;2022-07-29T04:59:21;9.35;;;4.50;;
38797;SDS011;24546;52.240;16.826;2022-07-29T05:04:22;7.47;;;4.40;;
38797;SDS011;24546;52.240;16.826;2022-07-29T05:09:23;6.57;;;3.70;;
38797;SDS011;24546;52.240;16.826;2022-07-29T05:14:24;8.77;;;4.22;;
38797;SDS011;24546;52.240;16.826;2022-07-29T05:19:25;7.95;;;3.33;;
38797;SDS011;24546;52.240;16.826;2022-07-29T05:24:26;9.20;;;3.70;;
38797;SDS011;24546;52.240;16.826;2022-07-29T05:29:27;6.72;;;3.60;;
38797;SDS011;24546;52.240;16.826;2022-07-29T05:34:28;10.95;;;3.97;;
38797;SDS011;24546;52.240;16.826;2022-07-29T05:39:29;6.38;;;3.10;;
38797;SDS011;24546;52.240;16.826;2022-07-29T05:44:29;7.65;;;3.83;;
38797;SDS011;24546;52.240;16.826;2022-07-29T05:49:30;7.82;;;3.15;;
38797;SDS011;24546;52.240;16.826;2022-07-29T05:54:31;5.28;;;3.30;;
38797;SDS011;24546;52.240;16.826;2022-07-29T05:59:36;4.68;;;2.55;;
38797;SDS011;24546;52.240;16.826;2022-07-29T06:04:37;8.77;;;2.83;;
38797;SDS011;24546;52.240;16.826;2022-07-29T06:09:38;4.93;;;2.60;;
38797;SDS011;24546;52.240;16.826;2022-07-29T06:14:39;8.68;;;2.80;;
38797;SDS011;24546;52.240;16.826;2022-07-29T06:19:40;6.63;;;2.90;;
38797;SDS011;24546;52.240;16.826;2022-07-29T06:24:41;7.63;;;2.78;;
38797;SDS011;24546;52.240;16.826;2022-07-29T06:29:44;5.53;;;2.65;;
38797;SDS011;24546;52.240;16.826;2022-07-29T06:34:44;6.20;;;2.40;;
38797;SDS011;24546;52.240;16.826;2022-07-29T06:39:45;7.57;;;2.97;;
38797;SDS011;24546;52.240;16.826;2022-07-29T06:44:46;7.13;;;2.83;;
38797;SDS011;24546;52.240;16.826;2022-07-29T06:49:47;6.05;;;2.35;;
38797;SDS011;24546;52.240;16.826;2022-07-29T06:54:48;3.38;;;1.83;;
38797;SDS011;24546;52.240;16.826;2022-07-29T06:59:49;6.43;;;2.47;;
38797;SDS011;24546;52.240;16.826;2022-07-29T07:04:49;7.50;;;2.35;;
38797;SDS011;24546;52.240;16.826;2022-07-29T07:09:50;6.25;;;2.17;;
38797;SDS011;24546;52.240;16.826;2022-07-29T07:14:51;5.25;;;1.90;;
38797;SDS011;24546;52.240;16.826;2022-07-29T07:19:52;6.70;;;2.15;;
38797;SDS011;24546;52.240;16.826;2022-07-29T07:24:53;4.80;;;2.30;;
38797;SDS011;24546;52.240;16.826;2022-07-29T07:29:54;8.13;;;2.83;;
38797;SDS011;24546;52.240;16.826;2022-07-29T07:34:54;6.03;;;2.40;;
38797;SDS011;24546;52.240;16.826;2022-07-29T07:39:55;7.10;;;2.22;;
38797;SDS011;24546;52.240;16.826;2022-07-29T07:44:56;5.95;;;2.00;;
38797;SDS011;24546;52.240;16.826;2022-07-29T07:49:57;4.72;;;2.17;;
38797;SDS011;24546;52.240;16.826;2022-07-29T07:54:58;4.90;;;2.20;;
38797;SDS011;24546;52.240;16.826;2022-07-29T07:59:59;5.57;;;1.80;;
38797;SDS011;24546;52.240;16.826;2022-07-29T08:05:00;5.70;;;1.90;;
38797;SDS011;24546;52.240;16.826;2022-07-29T08:10:01;6.05;;;1.90;;
38797;SDS011;24546;52.240;16.826;2022-07-29T08:15:02;4.63;;;1.60;;
38797;SDS011;24546;52.240;16.826;2022-07-29T08:20:03;3.88;;;1.85;;
38797;SDS011;24546;52.240;16.826;2022-07-29T08:25:05;5.50;;;1.70;;
38797;SDS011;24546;52.240;16.826;2022-07-29T08:30:06;5.13;;;1.92;;
38797;SDS011;24546;52.240;16.826;2022-07-29T08:35:07;5.40;;;1.92;;
38797;SDS011;24546;52.240;16.826;2022-07-29T08:40:09;3.50;;;1.60;;
38797;SDS011;24546;52.240;16.826;2022-07-29T08:45:10;3.65;;;1.55;;
38797;SDS011;24546;52.240;16.826;2022-07-29T08:50:12;5.00;;;1.77;;
38797;SDS011;24546;52.240;16.826;2022-07-29T08:55:14;3.03;;;1.50;;
38797;SDS011;24546;52.240;16.826;2022-07-29T09:00:16;8.40;;;1.92;;
38797;SDS011;24546;52.240;16.826;2022-07-29T09:05:18;3.00;;;1.50;;
38797;SDS011;24546;52.240;16.826;2022-07-29T09:10:19;4.20;;;1.80;;
38797;SDS011;24546;52.240;16.826;2022-07-29T09:15:20;3.67;;;1.73;;
38797;SDS011;24546;52.240;16.826;2022-07-29T09:20:22;4.78;;;1.60;;
38797;SDS011;24546;52.240;16.826;2022-07-29T09:25:32;2.33;;;1.33;;
38797;SDS011;24546;52.240;16.826;2022-07-29T09:30:33;7.18;;;1.85;;
38797;SDS011;24546;52.240;16.826;2022-07-29T09:35:34;3.55;;;1.45;;
38797;SDS011;24546;52.240;16.826;2022-07-29T09:40:35;6.80;;;1.58;;
38797;SDS011;24546;52.240;16.826;2022-07-29T09:45:36;3.88;;;1.40;;
38797;SDS011;24546;52.240;16.826;2022-07-29T09:50:38;3.70;;;1.70;;
38797;SDS011;24546;52.240;16.826;2022-07-29T09:55:47;5.07;;;1.60;;
38797;SDS011;24546;52.240;16.826;2022-07-29T10:00:52;3.97;;;1.63;;
38797;SDS011;24546;52.240;16.826;2022-07-29T10:06:07;2.92;;;1.52;;
38797;SDS011;24546;52.240;16.826;2022-07-29T10:11:11;2.73;;;1.53;;
38797;SDS011;24546;52.240;16.826;2022-07-29T10:16:21;7.47;;;1.80;;
38797;SDS011;24546;52.240;16.826;2022-07-29T10:21:22;5.07;;;1.40;;
38797;SDS011;24546;52.240;16.826;2022-07-29T10:26:23;4.25;;;1.70;;
38797;SDS011;24546;52.240;16.826;2022-07-29T10:31:27;3.17;;;1.60;;
38797;SDS011;24546;52.240;16.826;2022-07-29T10:36:50;4.07;;;1.73;;
38797;SDS011;24546;52.240;16.826;2022-07-29T10:47:07;4.53;;;1.55;;
38797;SDS011;24546;52.240;16.826;2022-07-29T10:52:08;3.38;;;1.10;;
38797;SDS011;24546;52.240;16.826;2022-07-29T11:07:35;4.85;;;1.60;;
38797;SDS011;24546;52.240;16.826;2022-07-29T11:22:54;4.88;;;1.65;;
38797;SDS011;24546;52.240;16.826;2022-07-29T11:28:08;3.67;;;1.50;;
38797;SDS011;24546;52.240;16.826;2022-07-29T11:33:29;3.80;;;1.60;;
38797;SDS011;24546;52.240;16.826;2022-07-29T11:38:33;5.05;;;1.58;;
38797;SDS011;24546;52.240;16.826;2022-07-29T11:44:07;4.75;;;1.63;;
38797;SDS011;24546;52.240;16.826;2022-07-29T11:49:01;5.47;;;1.77;;
38797;SDS011;24546;52.240;16.826;2022-07-29T11:54:03;7.70;;;2.15;;
38797;SDS011;24546;52.240;16.826;2022-07-29T11:59:05;3.85;;;1.45;;
38797;SDS011;24546;52.240;16.826;2022-07-29T12:04:09;6.93;;;2.23;;
38797;SDS011;24546;52.240;16.826;2022-07-29T12:09:10;4.03;;;1.75;;
38797;SDS011;24546;52.240;16.826;2022-07-29T12:14:29;4.40;;;1.48;;
38797;SDS011;24546;52.240;16.826;2022-07-29T12:19:41;3.78;;;1.50;;
38797;SDS011;24546;52.240;16.826;2022-07-29T12:24:43;5.85;;;1.83;;
38797;SDS011;24546;52.240;16.826;2022-07-29T12:29:45;5.68;;;1.33;;
38797;SDS011;24546;52.240;16.826;2022-07-29T12:34:56;2.40;;;1.50;;
38797;SDS011;24546;52.240;16.826;2022-07-29T12:39:57;3.72;;;1.67;;
38797;SDS011;24546;52.240;16.826;2022-07-29T12:44:58;5.40;;;2.30;;
38797;SDS011;24546;52.240;16.826;2022-07-29T12:50:09;3.67;;;1.55;;
38797;SDS011;24546;52.240;16.826;2022-07-29T13:00:41;6.57;;;1.58;;
38797;SDS011;24546;52.240;16.826;2022-07-29T13:05:42;4.10;;;1.50;;
38797;SDS011;24546;52.240;16.826;2022-07-29T13:10:45;5.50;;;2.10;;
38797;SDS011;24546;52.240;16.826;2022-07-29T13:15:46;4.25;;;1.60;;
38797;SDS011;24546;52.240;16.826;2022-07-29T13:21:11;3.05;;;1.75;;
38797;SDS011;24546;52.240;16.826;2022-07-29T13:26:13;4.20;;;1.40;;
38797;SDS011;24546;52.240;16.826;2022-07-29T13:31:19;3.65;;;1.73;;
38797;SDS011;24546;52.240;16.826;2022-07-29T13:36:20;2.22;;;1.40;;
38797;SDS011;24546;52.240;16.826;2022-07-29T13:41:21;5.68;;;2.00;;
38797;SDS011;24546;52.240;16.826;2022-07-29T13:46:22;3.65;;;1.58;;
38797;SDS011;24546;52.240;16.826;2022-07-29T13:51:22;3.65;;;1.30;;
38797;SDS011;24546;52.240;16.826;2022-07-29T13:56:23;4.47;;;1.60;;
38797;SDS011;24546;52.240;16.826;2022-07-29T14:01:24;5.50;;;1.45;;
38797;SDS011;24546;52.240;16.826;2022-07-29T14:06:26;9.80;;;2.28;;
38797;SDS011;24546;52.240;16.826;2022-07-29T14:11:27;3.03;;;1.50;;
38797;SDS011;24546;52.240;16.826;2022-07-29T14:16:28;4.80;;;1.35;;
38797;SDS011;24546;52.240;16.826;2022-07-29T14:21:29;2.60;;;1.70;;
38797;SDS011;24546;52.240;16.826;2022-07-29T14:26:30;4.47;;;1.60;;
38797;SDS011;24546;52.240;16.826;2022-07-29T14:31:31;3.03;;;1.60;;
38797;SDS011;24546;52.240;16.826;2022-07-29T14:36:32;3.03;;;1.35;;
38797;SDS011;24546;52.240;16.826;2022-07-29T14:41:33;6.68;;;1.52;;
38797;SDS011;24546;52.240;16.826;2022-07-29T14:46:33;4.93;;;1.85;;
38797;SDS011;24546;52.240;16.826;2022-07-29T14:51:34;2.45;;;1.60;;
38797;SDS011;24546;52.240;16.826;2022-07-29T14:56:35;3.42;;;1.45;;
38797;SDS011;24546;52.240;16.826;2022-07-29T15:01:36;4.32;;;1.42;;
38797;SDS011;24546;52.240;16.826;2022-07-29T15:06:37;2.75;;;1.67;;
38797;SDS011;24546;52.240;16.826;2022-07-29T15:11:38;3.90;;;2.00;;
38797;SDS011;24546;52.240;16.826;2022-07-29T15:16:39;3.20;;;1.50;;
38797;SDS011;24546;52.240;16.826;2022-07-29T15:21:40;9.25;;;2.22;;
38797;SDS011;24546;52.240;16.826;2022-07-29T15:26:41;5.28;;;1.50;;
38797;SDS011;24546;52.240;16.826;2022-07-29T15:31:42;4.20;;;1.60;;
38797;SDS011;24546;52.240;16.826;2022-07-29T15:36:44;4.05;;;1.73;;
38797;SDS011;24546;52.240;16.826;2022-07-29T15:41:45;6.93;;;1.75;;
38797;SDS011;24546;52.240;16.826;2022-07-29T15:46:46;7.32;;;1.52;;
38797;SDS011;24546;52.240;16.826;2022-07-29T15:52:09;5.18;;;1.60;;
38797;SDS011;24546;52.240;16.826;2022-07-29T15:57:10;2.65;;;1.52;;
38797;SDS011;24546;52.240;16.826;2022-07-29T16:02:11;6.60;;;1.75;;
38797;SDS011;24546;52.240;16.826;2022-07-29T16:07:12;4.00;;;1.73;;
38797;SDS011;24546;52.240;16.826;2022-07-29T16:12:13;2.53;;;1.42;;
38797;SDS011;24546;52.240;16.826;2022-07-29T16:17:13;3.20;;;1.55;;
38797;SDS011;24546;52.240;16.826;2022-07-29T16:22:14;6.00;;;1.90;;
38797;SDS011;24546;52.240;16.826;2022-07-29T16:27:15;7.80;;;2.28;;
38797;SDS011;24546;52.240;16.826;2022-07-29T16:32:16;3.65;;;1.67;;
38797;SDS011;24546;52.240;16.826;2022-07-29T16:37:17;5.22;;;1.70;;
38797;SDS011;24546;52.240;16.826;2022-07-29T16:42:18;6.32;;;1.60;;
38797;SDS011;24546;52.240;16.826;2022-07-29T16:47:19;2.60;;;1.65;;
38797;SDS011;24546;52.240;16.826;2022-07-29T16:52:20;6.30;;;1.60;;
38797;SDS011;24546;52.240;16.826;2022-07-29T16:57:21;4.88;;;1.63;;
38797;SDS011;24546;52.240;16.826;2022-07-29T17:02:21;6.20;;;1.90;;
38797;SDS011;24546;52.240;16.826;2022-07-29T17:07:22;3.83;;;1.67;;
38797;SDS011;24546;52.240;16.826;2022-07-29T17:12:23;3.58;;;1.50;;
38797;SDS011;24546;52.240;16.826;2022-07-29T17:17:24;3.42;;;1.58;;
38797;SDS011;24546;52.240;16.826;2022-07-29T17:22:25;3.53;;;1.63;;
38797;SDS011;24546;52.240;16.826;2022-07-29T17:27:26;4.13;;;1.70;;
38797;SDS011;24546;52.240;16.826;2022-07-29T17:32:27;5.47;;;1.40;;
38797;SDS011;24546;52.240;16.826;2022-07-29T17:37:28;4.38;;;1.40;;
38797;SDS011;24546;52.240;16.826;2022-07-29T17:42:29;5.43;;;1.40;;
38797;SDS011;24546;52.240;16.826;2022-07-29T17:47:30;2.95;;;1.23;;
38797;SDS011;24546;52.240;16.826;2022-07-29T17:52:31;5.15;;;1.83;;
38797;SDS011;24546;52.240;16.826;2022-07-29T17:57:32;5.28;;;1.60;;
38797;SDS011;24546;52.240;16.826;2022-07-29T18:02:33;4.80;;;1.70;;
38797;SDS011;24546;52.240;16.826;2022-07-29T18:07:36;2.45;;;1.30;;
38797;SDS011;24546;52.240;16.826;2022-07-29T18:12:37;3.92;;;1.40;;
38797;SDS011;24546;52.240;16.826;2022-07-29T18:17:38;7.82;;;4.93;;
38797;SDS011;24546;52.240;16.826;2022-07-29T18:22:39;3.80;;;1.80;;
38797;SDS011;24546;52.240;16.826;2022-07-29T18:27:40;6.63;;;4.00;;
38797;SDS011;24546;52.240;16.826;2022-07-29T18:32:41;6.93;;;3.70;;
38797;SDS011;24546;52.240;16.826;2022-07-29T18:37:43;4.53;;;2.85;;
38797;SDS011;24546;52.240;16.826;2022-07-29T18:42:43;7.82;;;4.05;;
38797;SDS011;24546;52.240;16.826;2022-07-29T18:47:44;5.95;;;3.10;;
38797;SDS011;24546;52.240;16.826;2022-07-29T18:52:45;6.15;;;1.90;;
38797;SDS011;24546;52.240;16.826;2022-07-29T18:57:46;6.40;;;2.45;;
38797;SDS011;24546;52.240;16.826;2022-07-29T19:02:47;5.07;;;1.95;;
38797;SDS011;24546;52.240;16.826;2022-07-29T19:07:48;3.17;;;2.00;;
38797;SDS011;24546;52.240;16.826;2022-07-29T19:12:49;4.22;;;2.20;;
38797;SDS011;24546;52.240;16.826;2022-07-29T19:17:50;5.43;;;1.92;;
38797;SDS011;24546;52.240;16.826;2022-07-29T19:22:51;6.35;;;2.97;;
38797;SDS011;24546;52.240;16.826;2022-07-29T19:27:51;6.53;;;2.60;;
38797;SDS011;24546;52.240;16.826;2022-07-29T19:32:52;11.65;;;3.15;;
38797;SDS011;24546;52.240;16.826;2022-07-29T19:37:53;6.03;;;2.53;;
38797;SDS011;24546;52.240;16.826;2022-07-29T19:42:55;6.35;;;3.00;;
38797;SDS011;24546;52.240;16.826;2022-07-29T19:47:57;7.00;;;2.42;;
38797;SDS011;24546;52.240;16.826;2022-07-29T19:52:59;8.23;;;2.47;;
38797;SDS011;24546;52.240;16.826;2022-07-29T19:58:00;7.40;;;2.05;;
38797;SDS011;24546;52.240;16.826;2022-07-29T20:03:03;7.82;;;2.50;;
38797;SDS011;24546;52.240;16.826;2022-07-29T20:08:04;7.32;;;2.40;;
38797;SDS011;24546;52.240;16.826;2022-07-29T20:13:05;6.20;;;2.13;;
38797;SDS011;24546;52.240;16.826;2022-07-29T20:18:06;7.63;;;2.38;;
38797;SDS011;24546;52.240;16.826;2022-07-29T20:23:07;4.20;;;1.90;;
38797;SDS011;24546;52.240;16.826;2022-07-29T20:28:08;4.85;;;2.08;;
38797;SDS011;24546;52.240;16.826;2022-07-29T20:33:09;4.90;;;2.75;;
38797;SDS011;24546;52.240;16.826;2022-07-29T20:38:10;4.80;;;2.35;;
38797;SDS011;24546;52.240;16.826;2022-07-29T20:43:11;5.50;;;2.17;;
38797;SDS011;24546;52.240;16.826;2022-07-29T20:48:12;3.75;;;2.10;;
38797;SDS011;24546;52.240;16.826;2022-07-29T20:53:16;5.07;;;2.00;;
38797;SDS011;24546;52.240;16.826;2022-07-29T20:58:19;8.05;;;2.03;;
38797;SDS011;24546;52.240;16.826;2022-07-29T21:03:20;6.22;;;2.20;;
38797;SDS011;24546;52.240;16.826;2022-07-29T21:08:21;7.10;;;2.50;;
38797;SDS011;24546;52.240;16.826;2022-07-29T21:13:22;6.05;;;2.03;;
38797;SDS011;24546;52.240;16.826;2022-07-29T21:18:24;5.13;;;2.28;;
38797;SDS011;24546;52.240;16.826;2022-07-29T21:23:36;5.80;;;1.92;;
38797;SDS011;24546;52.240;16.826;2022-07-29T21:28:37;4.47;;;2.35;;
38797;SDS011;24546;52.240;16.826;2022-07-29T21:33:40;8.48;;;2.63;;
38797;SDS011;24546;52.240;16.826;2022-07-29T21:38:42;5.38;;;1.95;;
38797;SDS011;24546;52.240;16.826;2022-07-29T21:43:43;3.97;;;2.00;;
38797;SDS011;24546;52.240;16.826;2022-07-29T21:48:45;4.55;;;2.15;;
38797;SDS011;24546;52.240;16.826;2022-07-29T21:53:46;4.50;;;1.98;;
38797;SDS011;24546;52.240;16.826;2022-07-29T21:58:46;5.78;;;2.10;;
38797;SDS011;24546;52.240;16.826;2022-07-29T22:03:47;5.38;;;2.50;;
38797;SDS011;24546;52.240;16.826;2022-07-29T22:08:48;6.95;;;2.25;;
38797;SDS011;24546;52.240;16.826;2022-07-29T22:13:49;5.38;;;2.33;;
38797;SDS011;24546;52.240;16.826;2022-07-29T22:18:50;6.13;;;1.98;;
38797;SDS011;24546;52.240;16.826;2022-07-29T22:23:51;5.32;;;2.85;;
38797;SDS011;24546;52.240;16.826;2022-07-29T22:28:51;5.28;;;2.15;;
38797;SDS011;24546;52.240;16.826;2022-07-29T22:33:52;8.05;;;2.47;;
38797;SDS011;24546;52.240;16.826;2022-07-29T22:38:53;5.95;;;2.60;;
38797;SDS011;24546;52.240;16.826;2022-07-29T22:43:54;6.85;;;2.55;;
38797;SDS011;24546;52.240;16.826;2022-07-29T22:48:55;5.63;;;2.38;;
38797;SDS011;24546;52.240;16.826;2022-07-29T22:53:57;7.55;;;2.70;;
38797;SDS011;24546;52.240;16.826;2022-07-29T22:58:58;7.50;;;2.65;;
38797;SDS011;24546;52.240;16.826;2022-07-29T23:03:59;6.47;;;2.25;;
38797;SDS011;24546;52.240;16.826;2022-07-29T23:09:00;5.00;;;2.40;;
38797;SDS011;24546;52.240;16.826;2022-07-29T23:14:00;8.93;;;2.90;;
38797;SDS011;24546;52.240;16.826;2022-07-29T23:19:01;6.15;;;2.33;;
38797;SDS011;24546;52.240;16.826;2022-07-29T23:24:02;5.82;;;2.55;;
38797;SDS011;24546;52.240;16.826;2022-07-29T23:29:03;8.35;;;2.85;;
38797;SDS011;24546;52.240;16.826;2022-07-29T23:34:04;10.05;;;2.90;;
38797;SDS011;24546;52.240;16.826;2022-07-29T23:39:05;7.20;;;2.28;;
38797;SDS011;24546;52.240;16.826;2022-07-29T23:44:10;4.72;;;2.85;;
38797;SDS011;24546;52.240;16.826;2022-07-29T23:49:11;8.73;;;2.83;;
38797;SDS011;24546;52.240;16.826;2022-07-29T23:54:12;6.28;;;2.55;;
38797;SDS011;24546;52.240;16.826;2022-07-29T23:59:13;6.82;;;2.38;;
